Time;durP1;ratioP1;P1;durP2;ratioP2;P2;SDS_P1;SDS_P2;PMS_P1;PMS_P2;Temp;Humidity;BMP_temperature;BMP_pressure;BME280_temperature;BME280_humidity;BME280_pressure;Samples;Min_cycle;Max_cycle;Signal;HPM_P1;HPM_P2
2023/03/14 00:00:10;;;;;;;11.23;2.45;;;10.80;78.90;;;;;;5023762;28;20082;-81
2023/03/14 00:02:36;;;;;;;9.70;2.50;;;10.70;79.00;;;;;;5005109;28;20262;-79
2023/03/14 00:05:06;;;;;;;13.18;3.08;;;10.80;79.30;;;;;;5027709;28;20040;-76
2023/03/14 00:07:35;;;;;;;8.65;2.58;;;10.70;79.40;;;;;;5022429;28;20036;-79
2023/03/14 00:10:04;;;;;;;8.82;2.22;;;10.70;79.60;;;;;;5027578;28;20452;-75
2023/03/14 00:12:30;;;;;;;11.85;2.67;;;10.60;79.90;;;;;;5023911;28;20148;-75
2023/03/14 00:14:55;;;;;;;10.70;2.35;;;10.60;80.10;;;;;;5021955;28;20029;-81
2023/03/14 00:17:22;;;;;;;11.55;3.15;;;10.60;80.20;;;;;;5021326;28;20029;-76
2023/03/14 00:19:52;;;;;;;11.50;3.22;;;10.60;80.50;;;;;;5023527;28;20028;-78
2023/03/14 00:22:18;;;;;;;13.77;2.85;;;10.60;80.70;;;;;;5022849;28;20088;-83
2023/03/14 00:24:44;;;;;;;11.40;2.92;;;10.60;80.90;;;;;;5023364;28;20143;-76
2023/03/14 00:27:09;;;;;;;14.82;3.58;;;10.50;81.10;;;;;;5019164;28;20112;-78
2023/03/14 00:29:35;;;;;;;12.23;2.55;;;10.50;81.30;;;;;;5025124;28;20289;-78
2023/03/14 00:32:01;;;;;;;10.75;3.00;;;10.60;81.40;;;;;;5019563;28;20046;-83
2023/03/14 00:34:31;;;;;;;13.55;3.03;;;10.60;81.50;;;;;;5007381;28;20486;-78
2023/03/14 00:36:57;;;;;;;15.20;3.30;;;10.60;81.60;;;;;;5024142;28;20766;-78
2023/03/14 00:39:23;;;;;;;15.68;3.20;;;10.60;81.40;;;;;;5008555;28;20022;-78
2023/03/14 00:41:48;;;;;;;13.20;2.75;;;10.60;81.60;;;;;;5023377;28;20072;-85
2023/03/14 00:44:14;;;;;;;14.88;2.88;;;10.60;81.50;;;;;;5027804;28;20025;-76
2023/03/14 00:46:40;;;;;;;11.30;3.15;;;10.60;81.70;;;;;;5006816;28;20131;-75
2023/03/14 00:49:06;;;;;;;14.00;2.85;;;10.60;81.70;;;;;;5025828;28;20060;-79
2023/03/14 00:51:31;;;;;;;10.88;3.30;;;10.60;81.80;;;;;;5024454;28;20063;-75
2023/03/14 00:53:57;;;;;;;13.77;3.55;;;10.60;81.90;;;;;;5033955;28;20041;-81
2023/03/14 00:56:23;;;;;;;13.38;3.70;;;10.70;81.90;;;;;;5025326;28;20842;-76
2023/03/14 00:58:49;;;;;;;15.85;3.50;;;10.70;82.00;;;;;;5023707;28;20502;-78
2023/03/14 01:01:18;;;;;;;15.57;2.88;;;10.60;82.10;;;;;;5028284;28;20060;-79
2023/03/14 01:03:44;;;;;;;14.40;3.30;;;10.60;82.10;;;;;;5027322;28;20023;-78
2023/03/14 01:06:14;;;;;;;11.50;3.50;;;10.60;82.50;;;;;;5024163;28;20306;-75
2023/03/14 01:08:40;;;;;;;10.85;3.30;;;10.60;82.50;;;;;;5011275;28;20021;-77
2023/03/14 01:11:11;;;;;;;14.60;3.15;;;10.60;82.70;;;;;;5025909;28;20033;-77
2023/03/14 01:13:38;;;;;;;12.68;3.15;;;10.60;82.70;;;;;;5028867;28;20018;-79
2023/03/14 01:16:06;;;;;;;13.02;2.95;;;10.60;82.90;;;;;;5029324;28;20057;-76
2023/03/14 01:18:33;;;;;;;13.77;2.65;;;10.60;83.00;;;;;;5027132;28;20021;-79
2023/03/14 01:20:59;;;;;;;14.40;3.03;;;10.60;83.20;;;;;;5022768;28;20034;-75
2023/03/14 01:23:24;;;;;;;12.18;2.90;;;10.60;83.20;;;;;;5001010;28;20389;-75
2023/03/14 01:25:50;;;;;;;12.73;3.22;;;10.60;83.30;;;;;;5024919;28;20478;-76
2023/03/14 01:28:16;;;;;;;12.95;2.88;;;10.60;83.20;;;;;;5026851;28;20494;-82
2023/03/14 01:30:42;;;;;;;13.98;3.17;;;10.60;83.20;;;;;;5026482;28;20040;-81
2023/03/14 01:33:07;;;;;;;12.52;2.60;;;10.50;83.20;;;;;;5023304;28;20083;-79
2023/03/14 01:35:33;;;;;;;14.10;3.10;;;10.50;83.40;;;;;;5027123;28;20060;-75
2023/03/14 01:37:59;;;;;;;9.82;2.50;;;10.50;83.60;;;;;;5020282;28;20466;-81
2023/03/14 01:40:24;;;;;;;12.27;2.85;;;10.50;83.70;;;;;;5027676;28;20025;-79
2023/03/14 01:42:58;;;;;;;7.53;2.30;;;10.60;83.60;;;;;;5024433;28;20509;-74
2023/03/14 01:46:01;;;;;;;13.77;4.20;;;10.60;83.50;;;;;;5025555;28;20093;-80
2023/03/14 01:48:31;;;;;;;8.68;2.17;;;10.60;83.50;;;;;;5024407;28;20038;-79
2023/03/14 01:50:59;;;;;;;10.07;2.63;;;10.70;83.30;;;;;;5031747;28;20029;-76
2023/03/14 01:53:25;;;;;;;12.00;3.40;;;10.70;83.10;;;;;;5011947;28;20381;-74
2023/03/14 01:55:56;;;;;;;9.68;2.50;;;10.70;83.00;;;;;;5008515;28;20504;-78
2023/03/14 01:58:25;;;;;;;9.52;2.10;;;10.70;83.00;;;;;;5025725;28;20255;-78
2023/03/14 02:00:51;;;;;;;10.88;2.95;;;10.70;83.00;;;;;;5024088;28;20075;-76
2023/03/14 02:03:18;;;;;;;8.98;1.85;;;10.70;82.90;;;;;;5023566;28;20037;-82
2023/03/14 02:05:46;;;;;;;8.82;2.83;;;10.70;82.90;;;;;;5025824;28;20044;-80
2023/03/14 02:08:15;;;;;;;10.32;2.70;;;10.70;82.90;;;;;;5025329;28;20021;-77
2023/03/14 02:10:47;;;;;;;10.25;2.70;;;10.70;83.00;;;;;;5009117;28;20454;-80
2023/03/14 02:13:15;;;;;;;10.35;2.95;;;10.70;83.00;;;;;;5028724;28;20079;-80
2023/03/14 02:15:41;;;;;;;8.45;2.10;;;10.80;83.40;;;;;;5028292;28;20053;-77
2023/03/14 02:18:08;;;;;;;9.68;2.80;;;10.80;83.70;;;;;;5023756;28;20446;-77
2023/03/14 02:20:46;;;;;;;8.00;2.03;;;10.70;84.10;;;;;;5024280;28;20061;-77
2023/03/14 02:23:15;;;;;;;8.75;1.70;;;10.70;84.30;;;;;;5024458;28;20505;-77
2023/03/14 02:25:50;;;;;;;6.20;1.73;;;10.70;84.50;;;;;;5021534;28;20508;-76
2023/03/14 02:28:16;;;;;;;6.22;1.55;;;10.70;84.80;;;;;;5023533;28;20036;-80
2023/03/14 02:30:42;;;;;;;5.97;1.75;;;10.60;85.00;;;;;;5025443;28;20026;-80
2023/03/14 02:33:12;;;;;;;7.25;1.85;;;10.60;85.30;;;;;;5021993;28;20472;-76
2023/03/14 02:35:50;;;;;;;9.73;2.00;;;10.60;85.50;;;;;;5023692;28;20021;-75
2023/03/14 02:38:25;;;;;;;7.35;2.28;;;10.60;85.80;;;;;;5007525;28;20534;-74
2023/03/14 02:40:50;;;;;;;;;;;10.60;86.20;;;;;;5025304;28;20924;-75
2023/03/14 02:43:16;;;;;;;10.18;2.63;;;10.60;86.20;;;;;;5024459;28;19963;-77
2023/03/14 02:45:50;;;;;;;5.38;1.65;;;10.60;86.40;;;;;;5023301;28;20039;-76
2023/03/14 02:48:22;;;;;;;8.18;1.77;;;10.60;86.60;;;;;;5028844;28;20596;-76
2023/03/14 02:50:50;;;;;;;7.30;2.28;;;10.60;86.70;;;;;;5008385;28;20473;-75
2023/03/14 02:53:20;;;;;;;10.55;2.38;;;10.60;86.80;;;;;;5025989;28;20021;-78
2023/03/14 02:55:47;;;;;;;6.95;2.13;;;10.60;87.10;;;;;;5012893;28;20071;-79
2023/03/14 02:58:13;;;;;;;8.95;2.13;;;10.60;87.20;;;;;;5009823;28;20033;-75
2023/03/14 03:00:39;;;;;;;6.80;2.08;;;10.60;87.10;;;;;;5025788;28;20386;-83
2023/03/14 03:03:05;;;;;;;8.80;2.45;;;10.60;87.40;;;;;;5027832;28;20477;-74
2023/03/14 03:05:32;;;;;;;7.40;2.10;;;10.60;87.50;;;;;;5016184;28;20029;-74
2023/03/14 03:07:58;;;;;;;9.10;2.20;;;10.60;87.50;;;;;;5023462;28;20041;-77
2023/03/14 03:10:24;;;;;;;13.30;2.70;;;10.50;87.50;;;;;;5027132;28;20026;-76
2023/03/14 03:12:51;;;;;;;8.48;2.15;;;10.40;87.70;;;;;;5022193;28;20502;-76
2023/03/14 03:15:17;;;;;;;13.57;2.80;;;10.40;87.80;;;;;;5026648;28;20036;-79
2023/03/14 03:17:42;;;;;;;10.55;2.55;;;10.40;87.90;;;;;;5018210;28;20030;-74
2023/03/14 03:20:09;;;;;;;10.95;2.75;;;10.40;88.00;;;;;;5030686;28;20036;-79
2023/03/14 03:22:36;;;;;;;11.43;2.72;;;10.40;88.30;;;;;;5021489;28;20549;-74
2023/03/14 03:25:06;;;;;;;10.77;2.70;;;10.40;88.50;;;;;;5023647;28;20029;-74
2023/03/14 03:27:36;;;;;;;9.40;2.50;;;10.40;88.70;;;;;;5024877;28;20800;-75
2023/03/14 03:30:04;;;;;;;7.88;2.45;;;10.50;88.80;;;;;;5025461;28;20029;-82
2023/03/14 03:32:30;;;;;;;8.18;2.75;;;10.50;88.80;;;;;;5024475;28;20541;-76
2023/03/14 03:34:56;;;;;;;13.05;2.67;;;10.50;88.90;;;;;;5008665;28;20025;-79
2023/03/14 03:37:21;;;;;;;10.80;2.53;;;10.50;89.00;;;;;;5022194;28;20391;-76
2023/03/14 03:39:49;;;;;;;10.77;3.33;;;10.50;89.00;;;;;;5027602;28;20034;-75
2023/03/14 03:42:15;;;;;;;9.05;2.80;;;10.60;89.10;;;;;;5022075;28;20053;-75
2023/03/14 03:44:41;;;;;;;8.95;2.80;;;10.60;89.20;;;;;;5026073;28;20441;-75
2023/03/14 03:47:06;;;;;;;9.38;3.42;;;10.60;89.40;;;;;;5021205;28;20045;-75
2023/03/14 03:49:32;;;;;;;14.88;3.65;;;10.60;89.50;;;;;;5008672;28;20071;-80
2023/03/14 03:51:59;;;;;;;7.95;2.97;;;10.60;89.80;;;;;;5025443;28;20095;-76
2023/03/14 03:54:25;;;;;;;13.73;3.60;;;10.60;89.80;;;;;;5022484;28;20017;-78
2023/03/14 03:56:51;;;;;;;11.88;3.70;;;10.60;90.00;;;;;;5024111;28;20128;-78
2023/03/14 03:59:17;;;;;;;10.00;3.20;;;10.60;90.10;;;;;;5011541;28;20034;-78
2023/03/14 04:01:43;;;;;;;11.70;4.18;;;10.60;90.20;;;;;;5023588;28;20644;-75
2023/03/14 04:04:09;;;;;;;9.68;3.70;;;10.60;90.30;;;;;;5025532;28;20132;-74
2023/03/14 04:06:35;;;;;;;9.50;3.50;;;10.60;90.50;;;;;;5031039;28;20031;-78
2023/03/14 04:09:01;;;;;;;10.88;4.10;;;10.60;90.70;;;;;;5020640;28;20021;-80
2023/03/14 04:11:27;;;;;;;10.15;4.22;;;10.60;90.80;;;;;;5034551;28;20754;-77
2023/03/14 04:13:52;;;;;;;9.25;4.32;;;10.60;90.80;;;;;;5031937;28;20049;-74
2023/03/14 04:16:21;;;;;;;9.60;3.80;;;10.60;90.90;;;;;;5008267;28;20033;-78
2023/03/14 04:18:47;;;;;;;8.43;3.70;;;10.60;90.90;;;;;;5029235;28;20026;-77
2023/03/14 04:21:13;;;;;;;6.80;3.08;;;10.60;90.80;;;;;;5011209;28;20557;-78
2023/03/14 04:23:39;;;;;;;8.40;2.88;;;10.60;90.70;;;;;;5029143;28;20041;-82
2023/03/14 04:26:05;;;;;;;6.75;2.33;;;10.60;90.50;;;;;;5022512;28;20037;-75
2023/03/14 04:28:31;;;;;;;6.80;2.25;;;10.60;90.30;;;;;;5027837;28;20030;-82
2023/03/14 04:30:57;;;;;;;5.10;1.88;;;10.60;90.00;;;;;;5010482;28;20095;-74
2023/03/14 04:33:22;;;;;;;4.60;1.90;;;10.60;89.10;;;;;;5018070;28;20501;-76
2023/03/14 04:35:49;;;;;;;6.93;1.88;;;10.70;88.70;;;;;;5023922;28;20060;-77
2023/03/14 04:38:16;;;;;;;6.03;1.63;;;10.60;88.40;;;;;;5028455;28;20226;-74
2023/03/14 04:40:42;;;;;;;3.63;1.73;;;10.70;88.20;;;;;;5010635;28;20456;-78
2023/03/14 04:43:09;;;;;;;3.30;1.50;;;10.70;87.80;;;;;;5027369;28;20041;-79
2023/03/14 04:45:35;;;;;;;4.82;1.63;;;10.70;87.40;;;;;;5025839;28;20568;-77
2023/03/14 04:48:01;;;;;;;5.47;1.92;;;10.70;87.10;;;;;;5026466;28;20021;-77
2023/03/14 04:50:27;;;;;;;5.57;2.03;;;10.70;87.00;;;;;;5027696;28;20030;-76
2023/03/14 04:52:52;;;;;;;7.30;2.35;;;10.70;87.00;;;;;;5024453;28;20064;-76
2023/03/14 04:55:18;;;;;;;5.97;2.35;;;10.70;87.10;;;;;;5027289;28;20060;-78
2023/03/14 04:57:43;;;;;;;5.78;2.72;;;10.80;87.10;;;;;;5024060;28;20041;-75
2023/03/14 05:00:10;;;;;;;6.95;2.20;;;10.80;87.00;;;;;;5020256;28;20029;-75
2023/03/14 05:02:36;;;;;;;6.63;2.25;;;10.80;87.00;;;;;;5026904;28;20064;-78
2023/03/14 05:05:02;;;;;;;7.85;2.28;;;10.80;87.00;;;;;;5023447;28;20466;-76
2023/03/14 05:07:27;;;;;;;8.02;3.25;;;10.80;87.20;;;;;;5024830;28;20128;-77
2023/03/14 05:09:53;;;;;;;7.97;3.00;;;10.90;87.60;;;;;;5027645;28;20287;-77
2023/03/14 05:12:20;;;;;;;7.68;2.58;;;10.80;88.00;;;;;;5026773;28;20037;-75
2023/03/14 05:14:45;;;;;;;8.85;2.92;;;10.80;88.00;;;;;;5027259;28;20034;-79
2023/03/14 05:17:14;;;;;;;7.53;2.92;;;10.80;88.40;;;;;;5028383;28;20037;-86
2023/03/14 05:19:43;;;;;;;10.57;2.97;;;10.70;88.50;;;;;;5025230;28;20049;-80
2023/03/14 05:22:08;;;;;;;6.63;3.05;;;10.70;88.90;;;;;;5024486;28;20120;-82
2023/03/14 05:24:34;;;;;;;8.80;3.35;;;10.70;89.20;;;;;;5026887;28;20112;-78
2023/03/14 05:27:00;;;;;;;10.45;3.13;;;10.60;89.40;;;;;;5007910;28;20156;-75
2023/03/14 05:29:25;;;;;;;8.50;4.28;;;10.60;89.80;;;;;;5024734;28;20079;-79
2023/03/14 05:31:51;;;;;;;9.00;3.83;;;10.60;90.10;;;;;;5025413;28;20044;-75
2023/03/14 05:34:17;;;;;;;12.27;3.80;;;10.60;90.20;;;;;;5024682;28;20401;-76
2023/03/14 05:36:42;;;;;;;8.40;2.67;;;10.30;90.40;;;;;;5024374;28;20536;-78
2023/03/14 05:39:08;;;;;;;7.78;2.75;;;9.30;88.20;;;;;;5023838;28;20595;-76
2023/03/14 05:41:34;;;;;;;10.55;3.08;;;9.00;88.80;;;;;;5025663;28;20123;-80
2023/03/14 05:43:59;;;;;;;10.20;3.38;;;8.60;89.30;;;;;;5034606;28;20615;-76
2023/03/14 05:46:25;;;;;;;10.32;3.90;;;8.50;89.80;;;;;;5023026;28;20455;-75
2023/03/14 05:48:50;;;;;;;8.80;3.42;;;8.40;90.10;;;;;;5032642;28;20477;-77
2023/03/14 05:51:16;;;;;;;13.68;4.70;;;8.40;90.40;;;;;;5026892;28;20033;-76
2023/03/14 05:53:42;;;;;;;10.98;5.00;;;8.20;90.30;;;;;;5000311;28;20108;-79
2023/03/14 05:56:08;;;;;;;11.98;4.97;;;8.20;90.60;;;;;;5023583;28;20084;-75
2023/03/14 05:58:34;;;;;;;9.68;4.47;;;8.20;90.50;;;;;;5027816;28;20033;-75
2023/03/14 06:01:06;;;;;;;11.40;4.47;;;8.20;90.60;;;;;;5021519;28;20037;-80
2023/03/14 06:03:32;;;;;;;12.10;4.28;;;8.10;90.40;;;;;;5026601;28;20044;-77
2023/03/14 06:05:58;;;;;;;9.80;4.88;;;8.10;90.60;;;;;;5021700;28;20038;-77
2023/03/14 06:08:24;;;;;;;14.48;4.57;;;7.90;90.60;;;;;;5023619;28;20048;-80
2023/03/14 06:10:50;;;;;;;10.57;4.10;;;8.00;90.70;;;;;;5024341;28;20654;-77
2023/03/14 06:13:16;;;;;;;12.07;4.63;;;7.90;90.10;;;;;;5022172;28;20048;-74
2023/03/14 06:15:43;;;;;;;9.48;4.05;;;7.90;90.00;;;;;;5022947;28;20451;-80
2023/03/14 06:18:08;;;;;;;12.70;4.90;;;7.80;89.90;;;;;;5021348;28;20029;-78
2023/03/14 06:20:38;;;;;;;13.55;5.00;;;7.90;90.00;;;;;;5021241;28;20036;-81
2023/03/14 06:23:08;;;;;;;15.75;5.78;;;7.90;89.80;;;;;;5020628;28;20127;-76
2023/03/14 06:25:35;;;;;;;10.60;5.35;;;7.80;89.80;;;;;;5020691;28;20066;-79
2023/03/14 06:28:01;;;;;;;11.85;6.03;;;7.80;89.70;;;;;;5020612;28;20442;-76
2023/03/14 06:30:26;;;;;;;12.52;6.00;;;7.80;89.70;;;;;;5023204;28;20128;-75
2023/03/14 06:32:52;;;;;;;12.27;5.85;;;7.80;89.40;;;;;;5005024;28;20120;-76
2023/03/14 06:35:18;;;;;;;13.63;6.00;;;7.80;89.50;;;;;;5021795;28;20029;-78
2023/03/14 06:37:44;;;;;;;15.18;5.95;;;7.80;89.80;;;;;;5021249;28;20045;-78
2023/03/14 06:40:13;;;;;;;12.70;5.80;;;7.80;90.10;;;;;;5020432;28;20029;-76
2023/03/14 06:42:39;;;;;;;13.13;5.35;;;7.80;90.20;;;;;;5021000;28;20133;-80
2023/03/14 06:45:05;;;;;;;12.70;5.78;;;7.80;90.50;;;;;;5023606;28;20765;-75
2023/03/14 06:47:31;;;;;;;14.82;5.60;;;7.90;90.90;;;;;;5015343;28;20121;-83
2023/03/14 06:49:57;;;;;;;13.07;5.80;;;7.90;90.90;;;;;;5000885;28;20036;-82
2023/03/14 06:52:22;;;;;;;12.02;5.75;;;7.80;91.00;;;;;;5015091;28;20525;-83
2023/03/14 06:54:48;;;;;;;13.68;5.63;;;7.90;91.10;;;;;;5001557;28;20557;-81
2023/03/14 06:57:14;;;;;;;10.90;5.55;;;7.80;91.10;;;;;;5017366;28;20046;-81
2023/03/14 06:59:39;;;;;;;14.05;6.50;;;7.60;90.80;;;;;;5020994;28;20517;-83
2023/03/14 07:02:11;;;;;;;11.65;6.20;;;7.60;91.00;;;;;;4999449;28;20046;-81
2023/03/14 07:04:36;;;;;;;14.73;5.25;;;7.50;90.30;;;;;;5021409;28;20017;-81
2023/03/14 07:07:02;;;;;;;15.60;6.53;;;7.60;90.40;;;;;;5007107;28;20033;-80
2023/03/14 07:09:28;;;;;;;16.23;6.00;;;7.60;90.30;;;;;;5020389;28;20028;-81
2023/03/14 07:11:53;;;;;;;14.65;6.22;;;7.60;90.30;;;;;;5021609;28;20111;-80
2023/03/14 07:14:19;;;;;;;14.07;5.07;;;7.60;89.90;;;;;;5023357;28;21280;-81
2023/03/14 07:16:45;;;;;;;20.80;5.65;;;7.50;89.50;;;;;;5026060;28;20198;-81
2023/03/14 07:19:11;;;;;;;16.05;5.38;;;7.50;89.00;;;;;;5024420;28;20027;-81
2023/03/14 07:21:36;;;;;;;17.63;5.10;;;7.50;88.20;;;;;;5020803;28;20556;-80
2023/03/14 07:24:02;;;;;;;17.15;4.65;;;7.50;87.80;;;;;;5019610;28;20116;-80
2023/03/14 07:26:28;;;;;;;16.20;4.50;;;7.50;87.50;;;;;;5022620;28;20390;-81
2023/03/14 07:28:54;;;;;;;16.52;4.47;;;7.50;87.20;;;;;;5001458;28;20116;-80
2023/03/14 07:31:19;;;;;;;15.77;4.43;;;7.50;87.00;;;;;;5023188;28;20528;-80
2023/03/14 07:33:45;;;;;;;13.95;4.22;;;7.50;86.70;;;;;;4998881;28;20025;-83
2023/03/14 07:36:11;;;;;;;15.30;4.40;;;7.50;86.40;;;;;;5004593;28;20636;-83
2023/03/14 07:38:36;;;;;;;14.43;5.65;;;7.40;86.20;;;;;;5019049;28;20022;-82
2023/03/14 07:41:06;;;;;;;15.80;5.78;;;7.40;85.60;;;;;;5018342;28;20359;-83
2023/03/14 07:43:32;;;;;;;15.15;5.57;;;7.40;85.90;;;;;;5021078;28;20034;-83
2023/03/14 07:45:58;;;;;;;16.08;4.30;;;7.40;85.40;;;;;;4999524;28;20498;-81
2023/03/14 07:48:26;;;;;;;16.90;5.20;;;7.40;85.70;;;;;;5003577;28;20024;-80
2023/03/14 07:50:53;;;;;;;16.30;5.20;;;7.40;85.40;;;;;;5002864;28;20054;-84
2023/03/14 07:53:19;;;;;;;17.25;5.22;;;7.30;84.90;;;;;;5024293;28;20056;-82
2023/03/14 07:55:46;;;;;;;11.52;4.32;;;7.30;84.60;;;;;;5001551;28;20037;-83
2023/03/14 07:58:12;;;;;;;16.08;4.13;;;7.30;84.30;;;;;;4998380;28;20064;-83
2023/03/14 08:00:38;;;;;;;20.98;4.50;;;7.10;83.70;;;;;;5001710;28;20151;-82
2023/03/14 08:03:07;;;;;;;14.32;4.20;;;7.10;83.30;;;;;;5001832;28;20040;-82
2023/03/14 08:05:37;;;;;;;15.77;4.32;;;7.00;84.00;;;;;;5005490;28;20018;-83
2023/03/14 08:08:04;;;;;;;16.55;4.82;;;7.00;84.80;;;;;;4995930;28;20018;-83
2023/03/14 08:10:31;;;;;;;14.45;4.30;;;6.90;85.40;;;;;;5002248;28;20164;-81
2023/03/14 08:12:58;;;;;;;13.98;3.72;;;6.90;85.60;;;;;;5001717;28;20040;-82
2023/03/14 08:15:24;;;;;;;15.10;5.03;;;6.80;84.90;;;;;;5000221;28;20502;-83
2023/03/14 08:17:50;;;;;;;15.95;3.80;;;6.80;84.30;;;;;;5001953;28;20148;-82
2023/03/14 08:20:25;;;;;;;15.13;4.30;;;6.80;84.30;;;;;;5003957;28;20018;-82
2023/03/14 08:22:51;;;;;;;16.08;4.13;;;6.80;85.20;;;;;;4998805;28;20149;-84
2023/03/14 08:25:17;;;;;;;15.45;4.38;;;6.80;85.30;;;;;;5003927;28;20057;-86
2023/03/14 08:27:44;;;;;;;15.27;3.80;;;6.80;84.90;;;;;;5015846;28;20087;-85
2023/03/14 08:30:12;;;;;;;17.60;4.70;;;6.70;84.90;;;;;;5012439;28;20047;-80
2023/03/14 08:32:37;;;;;;;18.95;4.78;;;6.80;84.70;;;;;;5001607;28;20034;-82
2023/03/14 08:35:05;;;;;;;17.95;5.38;;;6.80;84.40;;;;;;5004038;28;20026;-84
2023/03/14 08:37:35;;;;;;;12.30;3.90;;;6.80;84.30;;;;;;5007790;28;20128;-85
2023/03/14 08:40:06;;;;;;;15.27;3.60;;;6.90;84.40;;;;;;5017692;28;20026;-83
2023/03/14 08:42:35;;;;;;;19.90;4.47;;;6.90;84.20;;;;;;5009029;28;20049;-84
2023/03/14 08:45:01;;;;;;;13.60;4.53;;;7.00;84.50;;;;;;5007603;28;20029;-82
2023/03/14 08:47:27;;;;;;;14.48;3.53;;;7.00;84.40;;;;;;5021633;28;20474;-84
2023/03/14 08:49:53;;;;;;;15.45;3.75;;;6.90;84.20;;;;;;5028877;28;20034;-86
2023/03/14 08:52:19;;;;;;;15.45;4.55;;;6.90;84.50;;;;;;5017424;28;20044;-81
2023/03/14 08:54:45;;;;;;;12.00;3.17;;;6.90;84.70;;;;;;5028165;28;20029;-87
2023/03/14 08:57:11;;;;;;;15.73;5.15;;;7.00;84.40;;;;;;5011881;28;20089;-85
2023/03/14 08:59:37;;;;;;;15.15;4.03;;;7.10;84.70;;;;;;5027490;28;20017;-83
2023/03/14 09:02:03;;;;;;;12.05;3.00;;;7.10;83.40;;;;;;5022381;28;20068;-82
2023/03/14 09:04:32;;;;;;;10.48;2.72;;;7.20;83.10;;;;;;5026750;28;20500;-84
2023/03/14 09:06:59;;;;;;;9.70;2.70;;;7.30;82.10;;;;;;5025100;28;20283;-81
2023/03/14 09:09:26;;;;;;;10.77;3.30;;;7.20;82.00;;;;;;5022636;28;20083;-83
2023/03/14 09:11:52;;;;;;;9.85;3.03;;;7.30;82.30;;;;;;5023049;28;20038;-81
2023/03/14 09:14:18;;;;;;;10.88;2.83;;;7.30;81.70;;;;;;5022815;28;20036;-81
2023/03/14 09:16:44;;;;;;;9.50;2.90;;;7.40;82.30;;;;;;5028753;28;20103;-81
2023/03/14 09:19:10;;;;;;;13.20;3.50;;;7.50;82.30;;;;;;5021495;28;20072;-81
2023/03/14 09:21:36;;;;;;;13.25;2.78;;;7.60;81.80;;;;;;5025478;28;20397;-82
2023/03/14 09:24:02;;;;;;;19.17;3.33;;;7.60;81.30;;;;;;5029386;28;20107;-79
2023/03/14 09:26:27;;;;;;;14.25;3.75;;;7.50;80.40;;;;;;5020687;28;20053;-81
2023/03/14 09:28:53;;;;;;;10.07;2.53;;;7.50;80.80;;;;;;5021402;28;20793;-80
2023/03/14 09:31:19;;;;;;;11.35;2.97;;;7.50;80.80;;;;;;5023064;28;20021;-81
2023/03/14 09:33:44;;;;;;;10.30;2.75;;;7.60;80.80;;;;;;5023700;28;20045;-85
2023/03/14 09:36:10;;;;;;;14.70;4.00;;;7.60;80.50;;;;;;4996915;28;20475;-87
2023/03/14 09:38:36;;;;;;;10.80;3.10;;;7.60;79.50;;;;;;5022162;28;20064;-82
2023/03/14 09:41:11;;;;;;;11.23;3.10;;;7.70;78.90;;;;;;5022058;28;20057;-80
2023/03/14 09:43:37;;;;;;;10.57;2.25;;;7.60;78.90;;;;;;5017901;28;20121;-82
2023/03/14 09:46:03;;;;;;;15.27;3.90;;;7.50;78.80;;;;;;5018101;28;20125;-80
2023/03/14 09:48:31;;;;;;;13.23;3.67;;;7.60;79.50;;;;;;5004706;28;20025;-80
2023/03/14 09:50:59;;;;;;;12.65;3.17;;;7.80;80.00;;;;;;5016093;28;20153;-82
2023/03/14 09:53:28;;;;;;;9.57;2.83;;;8.00;79.80;;;;;;5015681;28;20042;-80
2023/03/14 09:55:57;;;;;;;10.32;2.78;;;8.10;79.60;;;;;;5013846;28;20310;-79
2023/03/14 09:58:24;;;;;;;12.75;2.65;;;8.30;78.30;;;;;;5014457;28;20666;-80
2023/03/14 10:00:52;;;;;;;11.25;3.05;;;8.40;77.50;;;;;;5015623;28;20492;-81
2023/03/14 10:03:34;;;;;;;14.00;3.00;;;8.30;77.70;;;;;;5016267;28;20086;-79
2023/03/14 10:06:00;;;;;;;13.68;3.50;;;8.10;78.00;;;;;;5017532;28;20069;-81
2023/03/14 10:08:26;;;;;;;12.75;3.30;;;7.70;79.20;;;;;;5016060;28;20026;-80
2023/03/14 10:10:53;;;;;;;11.38;2.53;;;7.70;80.30;;;;;;5020678;28;20044;-78
2023/03/14 10:13:27;;;;;;;10.55;3.15;;;7.30;81.00;;;;;;5026313;28;20417;-78
2023/03/14 10:16:01;;;;;;;13.35;3.53;;;7.10;82.50;;;;;;5001621;28;20512;-83
2023/03/14 10:18:29;;;;;;;14.07;3.95;;;7.10;84.00;;;;;;5016167;28;20022;-82
2023/03/14 10:21:16;;;;;;;16.15;4.57;;;7.10;84.60;;;;;;5013113;28;20113;-83
2023/03/14 10:23:42;;;;;;;11.57;3.58;;;7.20;85.20;;;;;;5022551;28;20083;-80
2023/03/14 10:26:24;;;;;;;9.65;2.90;;;7.00;85.00;;;;;;5021820;28;20455;-81
2023/03/14 10:29:01;;;;;;;10.60;3.20;;;7.00;85.40;;;;;;5022799;28;20031;-81
2023/03/14 10:31:26;;;;;;;9.23;2.35;;;6.90;85.40;;;;;;5022597;28;20105;-81
2023/03/14 10:34:04;;;;;;;11.45;3.50;;;6.70;85.20;;;;;;5022728;28;20029;-77
2023/03/14 10:36:32;;;;;;;11.27;3.47;;;6.60;85.80;;;;;;5008003;28;20492;-81
2023/03/14 10:39:23;;;;;;;10.52;3.20;;;6.40;85.60;;;;;;5024785;28;20144;-81
2023/03/14 10:41:52;;;;;;;12.32;3.10;;;6.40;86.70;;;;;;5021434;28;20030;-81
2023/03/14 10:44:22;;;;;;;10.43;3.42;;;6.40;86.90;;;;;;5025263;28;20068;-85
2023/03/14 10:46:58;;;;;;;13.98;2.92;;;6.30;87.10;;;;;;5002231;28;20567;-81
2023/03/14 10:49:31;;;;;;;11.25;3.15;;;6.30;87.70;;;;;;5023451;28;20025;-81
2023/03/14 10:52:22;;;;;;;10.75;3.00;;;6.20;87.50;;;;;;5018805;28;20049;-82
2023/03/14 10:54:59;;;;;;;7.57;2.83;;;6.30;87.90;;;;;;5022868;28;20060;-81
2023/03/14 10:57:26;;;;;;;9.55;3.33;;;6.40;88.00;;;;;;5019697;28;20144;-81
2023/03/14 10:59:54;;;;;;;11.50;3.25;;;6.30;87.90;;;;;;5022583;28;20048;-80
2023/03/14 11:02:39;;;;;;;14.20;3.25;;;6.40;88.10;;;;;;5023427;28;20038;-84
2023/03/14 11:05:31;;;;;;;10.15;3.78;;;6.40;88.40;;;;;;5019343;28;20045;-82
2023/03/14 11:08:13;;;;;;;10.00;3.40;;;6.60;88.40;;;;;;5019936;28;20538;-83
2023/03/14 11:10:43;;;;;;;12.23;2.90;;;6.60;88.30;;;;;;5020229;28;20028;-83
2023/03/14 11:13:25;;;;;;;7.43;2.42;;;6.50;87.80;;;;;;5020277;28;20079;-79
2023/03/14 11:16:21;;;;;;;9.07;2.03;;;6.40;87.80;;;;;;5024304;28;20042;-80
2023/03/14 11:19:17;;;;;;;5.75;2.53;;;6.30;88.20;;;;;;5021749;28;20497;-81
2023/03/14 11:22:11;;;;;;;6.68;1.95;;;6.20;87.70;;;;;;5012605;28;20041;-79
2023/03/14 11:25:02;;;;;;;5.65;2.03;;;6.20;87.90;;;;;;5017315;28;20044;-79
2023/03/14 11:27:40;;;;;;;7.38;2.33;;;6.10;88.00;;;;;;5018434;28;20395;-80
2023/03/14 11:30:23;;;;;;;8.38;2.38;;;6.10;88.30;;;;;;5020712;28;20034;-78
2023/03/14 11:33:08;;;;;;;4.07;2.08;;;6.10;88.40;;;;;;4990989;28;20053;-77
2023/03/14 11:35:56;;;;;;;5.57;1.80;;;6.10;88.00;;;;;;5009828;28;20079;-80
2023/03/14 11:38:48;;;;;;;8.23;2.45;;;6.10;88.10;;;;;;5008242;28;20076;-78
2023/03/14 11:41:25;;;;;;;5.07;2.22;;;6.10;87.80;;;;;;4995792;28;20664;-78
2023/03/14 11:43:57;;;;;;;3.88;1.83;;;6.10;88.00;;;;;;5011099;28;20107;-81
2023/03/14 11:46:37;;;;;;;4.88;1.80;;;6.20;88.20;;;;;;5009935;28;20129;-80
2023/03/14 11:49:17;;;;;;;8.02;2.10;;;6.30;88.00;;;;;;5007157;28;20040;-79
2023/03/14 11:51:47;;;;;;;6.15;2.17;;;6.40;88.10;;;;;;5008887;28;20174;-81
2023/03/14 11:54:36;;;;;;;3.70;2.08;;;6.40;87.70;;;;;;5009373;28;20434;-79
2023/03/14 11:57:05;;;;;;;7.45;2.67;;;6.30;88.00;;;;;;4998214;28;20065;-80
2023/03/14 11:59:46;;;;;;;6.68;3.05;;;6.20;88.00;;;;;;5008198;28;20442;-79
2023/03/14 12:02:27;;;;;;;5.07;1.95;;;6.10;88.30;;;;;;5011266;28;20108;-81
2023/03/14 12:05:32;;;;;;;3.85;2.22;;;6.20;88.50;;;;;;5010080;28;20421;-81
2023/03/14 12:08:06;;;;;;;8.88;3.33;;;6.10;88.20;;;;;;5008734;28;20289;-80
2023/03/14 12:10:39;;;;;;;11.48;5.72;;;6.20;88.40;;;;;;5008282;28;20124;-80
2023/03/14 12:13:08;;;;;;;11.02;7.10;;;6.20;88.60;;;;;;5008121;28;20458;-80
2023/03/14 12:15:39;;;;;;;11.10;6.53;;;6.30;88.70;;;;;;5007995;28;20025;-80
2023/03/14 12:18:18;;;;;;;9.98;6.50;;;6.30;88.30;;;;;;5006733;28;20115;-81
2023/03/14 12:20:53;;;;;;;10.98;6.80;;;6.30;88.70;;;;;;5009660;28;20804;-80
2023/03/14 12:23:20;;;;;;;8.82;4.55;;;6.30;88.90;;;;;;5008470;28;20030;-81
2023/03/14 12:25:46;;;;;;;9.20;3.90;;;6.20;88.60;;;;;;5005084;28;20107;-81
2023/03/14 12:28:30;;;;;;;7.88;3.97;;;6.20;88.90;;;;;;5007163;28;20076;-82
2023/03/14 12:30:55;;;;;;;16.80;4.32;;;6.20;89.20;;;;;;5009813;28;20029;-82
2023/03/14 12:33:27;;;;;;;13.45;4.82;;;6.20;89.00;;;;;;5016364;28;20370;-83
2023/03/14 12:36:00;;;;;;;17.50;4.38;;;6.30;89.00;;;;;;5020392;28;20040;-80
2023/03/14 12:39:00;;;;;;;29.52;4.70;;;6.30;88.80;;;;;;5020582;28;20025;-81
2023/03/14 12:41:38;;;;;;;19.05;4.07;;;6.40;88.50;;;;;;5018679;28;20350;-80
2023/03/14 12:44:28;;;;;;;21.75;5.10;;;6.40;88.50;;;;;;5019169;28;20034;-82
2023/03/14 12:46:56;;;;;;;24.15;5.20;;;6.40;88.70;;;;;;5020334;28;20042;-82
2023/03/14 12:49:30;;;;;;;23.65;4.57;;;5.90;86.40;;;;;;5002955;28;20381;-81
2023/03/14 12:52:00;;;;;;;27.92;5.95;;;5.60;86.50;;;;;;5021065;28;20029;-77
2023/03/14 12:54:43;;;;;;;22.45;4.70;;;5.70;86.10;;;;;;5005808;28;20057;-82